sensor_id;sensor_type;location;lat;lon;timestamp;temperature;humidity
7030;DHT22;3556;53.500;10.176;2023-04-02T00:01:23;1.10;99.90
7030;DHT22;3556;53.500;10.176;2023-04-02T00:09:27;1.20;99.90
7030;DHT22;3556;53.500;10.176;2023-04-02T00:11:54;1.10;99.90
7030;DHT22;3556;53.500;10.176;2023-04-02T00:14:31;1.10;99.90
7030;DHT22;3556;53.500;10.176;2023-04-02T00:17:03;1.00;99.90
7030;DHT22;3556;53.500;10.176;2023-04-02T00:19:56;1.00;99.90
7030;DHT22;3556;53.500;10.176;2023-04-02T00:22:30;1.00;99.90
7030;DHT22;3556;53.500;10.176;2023-04-02T00:24:59;1.00;99.90
7030;DHT22;3556;53.500;10.176;2023-04-02T00:27:25;1.00;99.90
7030;DHT22;3556;53.500;10.176;2023-04-02T00:29:54;1.00;99.90
7030;DHT22;3556;53.500;10.176;2023-04-02T00:32:30;1.10;99.90
7030;DHT22;3556;53.500;10.176;2023-04-02T00:34:56;1.00;99.90
7030;DHT22;3556;53.500;10.176;2023-04-02T00:37:26;1.00;99.90
7030;DHT22;3556;53.500;10.176;2023-04-02T00:40:01;1.00;99.90
7030;DHT22;3556;53.500;10.176;2023-04-02T00:42:31;1.00;99.90
7030;DHT22;3556;53.500;10.176;2023-04-02T00:45:00;1.00;99.90
7030;DHT22;3556;53.500;10.176;2023-04-02T00:47:31;1.00;99.90
7030;DHT22;3556;53.500;10.176;2023-04-02T00:50:14;1.00;99.90
7030;DHT22;3556;53.500;10.176;2023-04-02T00:52:45;1.00;99.90
7030;DHT22;3556;53.500;10.176;2023-04-02T00:57:44;1.00;99.90
7030;DHT22;3556;53.500;10.176;2023-04-02T01:00:27;1.00;99.90
7030;DHT22;3556;53.500;10.176;2023-04-02T01:08:35;1.00;99.90
7030;DHT22;3556;53.500;10.176;2023-04-02T01:13:55;0.90;99.90
7030;DHT22;3556;53.500;10.176;2023-04-02T01:21:52;0.90;99.90
7030;DHT22;3556;53.500;10.176;2023-04-02T01:24:23;0.90;99.90
7030;DHT22;3556;53.500;10.176;2023-04-02T01:29:58;0.80;99.90
7030;DHT22;3556;53.500;10.176;2023-04-02T01:32:27;0.80;99.90
7030;DHT22;3556;53.500;10.176;2023-04-02T01:34:53;0.80;99.90
7030;DHT22;3556;53.500;10.176;2023-04-02T01:37:43;0.80;99.90
7030;DHT22;3556;53.500;10.176;2023-04-02T01:45:28;0.80;99.90
7030;DHT22;3556;53.500;10.176;2023-04-02T01:47:54;0.70;99.90
7030;DHT22;3556;53.500;10.176;2023-04-02T01:50:39;0.70;99.90
7030;DHT22;3556;53.500;10.176;2023-04-02T01:53:14;0.70;99.90
7030;DHT22;3556;53.500;10.176;2023-04-02T01:55:47;0.60;99.90
7030;DHT22;3556;53.500;10.176;2023-04-02T01:58:17;0.60;99.90
7030;DHT22;3556;53.500;10.176;2023-04-02T02:01:10;0.60;99.90
7030;DHT22;3556;53.500;10.176;2023-04-02T02:03:38;0.60;99.90
7030;DHT22;3556;53.500;10.176;2023-04-02T02:06:05;0.60;99.90
7030;DHT22;3556;53.500;10.176;2023-04-02T02:11:14;0.60;99.90
7030;DHT22;3556;53.500;10.176;2023-04-02T02:14:08;0.50;99.90
7030;DHT22;3556;53.500;10.176;2023-04-02T02:16:33;0.60;99.90
7030;DHT22;3556;53.500;10.176;2023-04-02T02:19:06;0.60;99.90
7030;DHT22;3556;53.500;10.176;2023-04-02T02:21:46;0.60;99.90
7030;DHT22;3556;53.500;10.176;2023-04-02T02:24:25;0.60;99.90
7030;DHT22;3556;53.500;10.176;2023-04-02T02:29:59;0.60;99.90
7030;DHT22;3556;53.500;10.176;2023-04-02T02:32:29;0.60;99.90
7030;DHT22;3556;53.500;10.176;2023-04-02T02:37:56;0.50;99.90
7030;DHT22;3556;53.500;10.176;2023-04-02T02:40:37;0.50;99.90
7030;DHT22;3556;53.500;10.176;2023-04-02T02:43:05;0.50;99.90
7030;DHT22;3556;53.500;10.176;2023-04-02T02:45:35;0.50;99.90
7030;DHT22;3556;53.500;10.176;2023-04-02T02:48:07;0.50;99.90
7030;DHT22;3556;53.500;10.176;2023-04-02T02:50:34;0.50;99.90
7030;DHT22;3556;53.500;10.176;2023-04-02T02:53:04;0.50;99.90
7030;DHT22;3556;53.500;10.176;2023-04-02T02:55:32;0.50;99.90
7030;DHT22;3556;53.500;10.176;2023-04-02T02:58:00;0.60;99.90
7030;DHT22;3556;53.500;10.176;2023-04-02T03:00:28;0.60;99.90
7030;DHT22;3556;53.500;10.176;2023-04-02T03:02:55;0.60;99.90
7030;DHT22;3556;53.500;10.176;2023-04-02T03:05:23;0.60;99.90
7030;DHT22;3556;53.500;10.176;2023-04-02T03:07:52;0.60;99.90
7030;DHT22;3556;53.500;10.176;2023-04-02T03:18:31;0.70;99.90
7030;DHT22;3556;53.500;10.176;2023-04-02T03:24:24;0.80;99.90
7030;DHT22;3556;53.500;10.176;2023-04-02T03:26:39;0.80;99.90
7030;DHT22;3556;53.500;10.176;2023-04-02T03:29:24;0.90;99.90
7030;DHT22;3556;53.500;10.176;2023-04-02T03:32:06;0.90;99.90
7030;DHT22;3556;53.500;10.176;2023-04-02T03:34:46;0.90;99.90
7030;DHT22;3556;53.500;10.176;2023-04-02T03:39:46;0.90;99.90
7030;DHT22;3556;53.500;10.176;2023-04-02T03:42:27;0.90;99.90
7030;DHT22;3556;53.500;10.176;2023-04-02T03:48:25;1.00;99.90
7030;DHT22;3556;53.500;10.176;2023-04-02T03:52:49;0.90;99.90
7030;DHT22;3556;53.500;10.176;2023-04-02T03:55:18;1.00;99.90
7030;DHT22;3556;53.500;10.176;2023-04-02T04:00:35;1.00;99.90
7030;DHT22;3556;53.500;10.176;2023-04-02T04:03:10;1.00;99.90
7030;DHT22;3556;53.500;10.176;2023-04-02T04:05:44;1.00;99.90
7030;DHT22;3556;53.500;10.176;2023-04-02T04:08:26;1.10;99.90
7030;DHT22;3556;53.500;10.176;2023-04-02T04:10:57;1.10;99.90
7030;DHT22;3556;53.500;10.176;2023-04-02T04:13:42;1.10;99.90
7030;DHT22;3556;53.500;10.176;2023-04-02T04:16:15;1.10;99.90
7030;DHT22;3556;53.500;10.176;2023-04-02T04:19:50;1.10;99.90
7030;DHT22;3556;53.500;10.176;2023-04-02T04:22:29;1.20;99.90
7030;DHT22;3556;53.500;10.176;2023-04-02T04:24:57;1.20;99.90
7030;DHT22;3556;53.500;10.176;2023-04-02T04:27:28;1.20;99.90
7030;DHT22;3556;53.500;10.176;2023-04-02T04:32:54;1.20;99.90
7030;DHT22;3556;53.500;10.176;2023-04-02T04:35:42;1.10;99.90
7030;DHT22;3556;53.500;10.176;2023-04-02T04:38:25;1.10;99.90
7030;DHT22;3556;53.500;10.176;2023-04-02T04:41:20;1.10;99.90
7030;DHT22;3556;53.500;10.176;2023-04-02T04:44:41;1.10;99.90
7030;DHT22;3556;53.500;10.176;2023-04-02T04:47:01;1.00;99.90
7030;DHT22;3556;53.500;10.176;2023-04-02T04:49:49;1.00;99.90
7030;DHT22;3556;53.500;10.176;2023-04-02T04:52:23;1.00;99.90
7030;DHT22;3556;53.500;10.176;2023-04-02T04:54:50;1.00;99.90
7030;DHT22;3556;53.500;10.176;2023-04-02T04:57:34;1.00;99.90
7030;DHT22;3556;53.500;10.176;2023-04-02T05:00:15;1.00;99.90
7030;DHT22;3556;53.500;10.176;2023-04-02T05:02:58;0.90;99.90
7030;DHT22;3556;53.500;10.176;2023-04-02T05:05:30;0.90;99.90
7030;DHT22;3556;53.500;10.176;2023-04-02T05:08:03;0.90;99.90
7030;DHT22;3556;53.500;10.176;2023-04-02T05:13:16;0.80;99.90
7030;DHT22;3556;53.500;10.176;2023-04-02T05:18:40;0.70;99.90
7030;DHT22;3556;53.500;10.176;2023-04-02T05:21:31;0.70;99.90
7030;DHT22;3556;53.500;10.176;2023-04-02T05:27:48;0.80;99.90
7030;DHT22;3556;53.500;10.176;2023-04-02T05:35:44;0.80;99.90
7030;DHT22;3556;53.500;10.176;2023-04-02T05:38:21;0.80;99.90
7030;DHT22;3556;53.500;10.176;2023-04-02T05:40:53;0.80;99.90
7030;DHT22;3556;53.500;10.176;2023-04-02T05:43:24;0.80;99.90
7030;DHT22;3556;53.500;10.176;2023-04-02T05:45:53;0.90;99.90
7030;DHT22;3556;53.500;10.176;2023-04-02T05:48:42;0.90;99.90
7030;DHT22;3556;53.500;10.176;2023-04-02T05:51:16;0.90;99.90
7030;DHT22;3556;53.500;10.176;2023-04-02T05:53:54;1.10;99.90
7030;DHT22;3556;53.500;10.176;2023-04-02T05:56:28;1.10;99.90
7030;DHT22;3556;53.500;10.176;2023-04-02T06:01:46;1.40;99.90
7030;DHT22;3556;53.500;10.176;2023-04-02T06:04:24;1.50;99.90
7030;DHT22;3556;53.500;10.176;2023-04-02T06:07:06;1.60;99.90
7030;DHT22;3556;53.500;10.176;2023-04-02T06:09:47;1.80;99.90
7030;DHT22;3556;53.500;10.176;2023-04-02T06:12:22;1.90;99.90
7030;DHT22;3556;53.500;10.176;2023-04-02T06:14:49;2.00;99.90
7030;DHT22;3556;53.500;10.176;2023-04-02T06:17:16;2.10;99.90
7030;DHT22;3556;53.500;10.176;2023-04-02T06:19:42;2.20;99.90
7030;DHT22;3556;53.500;10.176;2023-04-02T06:22:30;2.30;99.90
7030;DHT22;3556;53.500;10.176;2023-04-02T06:25:04;2.40;99.90
7030;DHT22;3556;53.500;10.176;2023-04-02T06:27:34;2.60;99.90
7030;DHT22;3556;53.500;10.176;2023-04-02T06:30:04;2.70;99.90
7030;DHT22;3556;53.500;10.176;2023-04-02T06:32:30;2.80;99.90
7030;DHT22;3556;53.500;10.176;2023-04-02T06:34:56;3.00;99.90
7030;DHT22;3556;53.500;10.176;2023-04-02T06:39:48;3.30;99.90
7030;DHT22;3556;53.500;10.176;2023-04-02T06:42:23;3.40;99.90
7030;DHT22;3556;53.500;10.176;2023-04-02T06:44:50;3.50;99.90
7030;DHT22;3556;53.500;10.176;2023-04-02T06:47:35;3.80;99.90
7030;DHT22;3556;53.500;10.176;2023-04-02T06:50:27;3.90;99.90
7030;DHT22;3556;53.500;10.176;2023-04-02T06:53:02;4.10;99.90
7030;DHT22;3556;53.500;10.176;2023-04-02T06:58:18;4.30;99.90
7030;DHT22;3556;53.500;10.176;2023-04-02T07:00:46;4.50;99.90
7030;DHT22;3556;53.500;10.176;2023-04-02T07:03:32;4.60;99.90
7030;DHT22;3556;53.500;10.176;2023-04-02T07:05:59;4.80;99.90
7030;DHT22;3556;53.500;10.176;2023-04-02T07:08:26;4.90;99.90
7030;DHT22;3556;53.500;10.176;2023-04-02T07:10:51;5.00;99.90
7030;DHT22;3556;53.500;10.176;2023-04-02T07:13:19;5.00;99.90
7030;DHT22;3556;53.500;10.176;2023-04-02T07:15:46;5.10;99.90
7030;DHT22;3556;53.500;10.176;2023-04-02T07:20:46;5.10;99.90
7030;DHT22;3556;53.500;10.176;2023-04-02T07:23:12;5.20;99.90
7030;DHT22;3556;53.500;10.176;2023-04-02T07:25:38;5.30;99.90
7030;DHT22;3556;53.500;10.176;2023-04-02T07:28:04;5.40;99.90
7030;DHT22;3556;53.500;10.176;2023-04-02T07:30:30;5.50;99.90
7030;DHT22;3556;53.500;10.176;2023-04-02T07:32:56;5.40;99.90
7030;DHT22;3556;53.500;10.176;2023-04-02T07:35:21;5.40;99.90
7030;DHT22;3556;53.500;10.176;2023-04-02T07:37:47;5.60;99.90
7030;DHT22;3556;53.500;10.176;2023-04-02T07:40:18;5.80;99.90
7030;DHT22;3556;53.500;10.176;2023-04-02T07:42:45;5.70;99.90
7030;DHT22;3556;53.500;10.176;2023-04-02T07:45:11;5.70;99.90
7030;DHT22;3556;53.500;10.176;2023-04-02T07:47:37;5.80;99.90
7030;DHT22;3556;53.500;10.176;2023-04-02T07:50:03;6.00;99.90
7030;DHT22;3556;53.500;10.176;2023-04-02T07:52:28;6.10;99.90
7030;DHT22;3556;53.500;10.176;2023-04-02T07:54:54;6.20;99.90
7030;DHT22;3556;53.500;10.176;2023-04-02T07:57:20;6.20;99.90
7030;DHT22;3556;53.500;10.176;2023-04-02T07:59:45;6.20;99.90
7030;DHT22;3556;53.500;10.176;2023-04-02T08:02:21;6.20;99.90
7030;DHT22;3556;53.500;10.176;2023-04-02T08:04:50;6.10;99.90
7030;DHT22;3556;53.500;10.176;2023-04-02T08:07:16;6.10;99.90
7030;DHT22;3556;53.500;10.176;2023-04-02T08:09:43;6.00;99.90
7030;DHT22;3556;53.500;10.176;2023-04-02T08:12:12;6.00;99.90
7030;DHT22;3556;53.500;10.176;2023-04-02T08:14:38;6.20;99.90
7030;DHT22;3556;53.500;10.176;2023-04-02T08:17:03;6.40;99.90
7030;DHT22;3556;53.500;10.176;2023-04-02T08:19:29;6.50;99.90
7030;DHT22;3556;53.500;10.176;2023-04-02T08:21:55;6.80;99.90
7030;DHT22;3556;53.500;10.176;2023-04-02T08:24:21;7.00;99.90
7030;DHT22;3556;53.500;10.176;2023-04-02T08:26:48;7.20;99.90
7030;DHT22;3556;53.500;10.176;2023-04-02T08:29:14;7.20;99.90
7030;DHT22;3556;53.500;10.176;2023-04-02T08:31:40;7.10;99.90
7030;DHT22;3556;53.500;10.176;2023-04-02T08:34:06;7.00;99.90
7030;DHT22;3556;53.500;10.176;2023-04-02T08:36:33;6.80;99.90
7030;DHT22;3556;53.500;10.176;2023-04-02T08:39:00;6.60;99.90
7030;DHT22;3556;53.500;10.176;2023-04-02T08:41:26;6.60;99.90
7030;DHT22;3556;53.500;10.176;2023-04-02T08:46:44;6.80;99.90
7030;DHT22;3556;53.500;10.176;2023-04-02T08:49:15;7.10;99.90
7030;DHT22;3556;53.500;10.176;2023-04-02T08:51:41;7.40;99.90
7030;DHT22;3556;53.500;10.176;2023-04-02T08:57:08;7.80;99.90
7030;DHT22;3556;53.500;10.176;2023-04-02T08:59:41;8.10;99.90
7030;DHT22;3556;53.500;10.176;2023-04-02T09:04:38;8.30;99.90
7030;DHT22;3556;53.500;10.176;2023-04-02T09:07:11;8.40;99.90
7030;DHT22;3556;53.500;10.176;2023-04-02T09:09:37;8.60;99.90
7030;DHT22;3556;53.500;10.176;2023-04-02T09:12:03;8.80;99.90
7030;DHT22;3556;53.500;10.176;2023-04-02T09:17:25;9.10;99.90
7030;DHT22;3556;53.500;10.176;2023-04-02T09:20:12;9.40;99.90
7030;DHT22;3556;53.500;10.176;2023-04-02T09:22:41;9.20;99.90
7030;DHT22;3556;53.500;10.176;2023-04-02T09:25:15;9.40;99.90
7030;DHT22;3556;53.500;10.176;2023-04-02T09:27:42;9.60;97.80
7030;DHT22;3556;53.500;10.176;2023-04-02T09:30:23;9.70;99.90
7030;DHT22;3556;53.500;10.176;2023-04-02T09:32:56;9.90;97.60
7030;DHT22;3556;53.500;10.176;2023-04-02T09:35:29;9.90;94.30
7030;DHT22;3556;53.500;10.176;2023-04-02T09:40:59;9.50;96.30
7030;DHT22;3556;53.500;10.176;2023-04-02T09:43:27;9.80;99.90
7030;DHT22;3556;53.500;10.176;2023-04-02T09:48:41;10.20;99.90
7030;DHT22;3556;53.500;10.176;2023-04-02T09:51:12;10.40;99.90
7030;DHT22;3556;53.500;10.176;2023-04-02T09:56:23;10.60;94.80
7030;DHT22;3556;53.500;10.176;2023-04-02T10:01:29;10.50;94.00
7030;DHT22;3556;53.500;10.176;2023-04-02T10:03:55;10.60;94.50
7030;DHT22;3556;53.500;10.176;2023-04-02T10:06:23;10.70;92.40
7030;DHT22;3556;53.500;10.176;2023-04-02T10:08:49;10.60;92.10
7030;DHT22;3556;53.500;10.176;2023-04-02T10:11:29;10.70;91.70
7030;DHT22;3556;53.500;10.176;2023-04-02T10:14:23;11.00;92.60
7030;DHT22;3556;53.500;10.176;2023-04-02T10:16:57;11.00;89.10
7030;DHT22;3556;53.500;10.176;2023-04-02T10:19:41;11.00;90.90
7030;DHT22;3556;53.500;10.176;2023-04-02T10:22:22;11.00;90.50
7030;DHT22;3556;53.500;10.176;2023-04-02T10:24:48;10.50;90.50
7030;DHT22;3556;53.500;10.176;2023-04-02T10:27:24;10.60;91.80
7030;DHT22;3556;53.500;10.176;2023-04-02T10:32:45;10.70;90.70
7030;DHT22;3556;53.500;10.176;2023-04-02T10:38:14;11.40;90.50
7030;DHT22;3556;53.500;10.176;2023-04-02T10:49:49;12.10;84.40
7030;DHT22;3556;53.500;10.176;2023-04-02T10:55:30;12.20;86.80
7030;DHT22;3556;53.500;10.176;2023-04-02T10:57:59;12.30;83.90
7030;DHT22;3556;53.500;10.176;2023-04-02T11:00:30;12.20;83.90
7030;DHT22;3556;53.500;10.176;2023-04-02T11:03:04;12.30;85.90
7030;DHT22;3556;53.500;10.176;2023-04-02T11:05:51;12.20;81.70
7030;DHT22;3556;53.500;10.176;2023-04-02T11:08:29;12.00;79.90
7030;DHT22;3556;53.500;10.176;2023-04-02T11:11:10;12.20;82.30
7030;DHT22;3556;53.500;10.176;2023-04-02T11:13:54;12.10;84.80
7030;DHT22;3556;53.500;10.176;2023-04-02T11:16:23;12.20;93.90
7030;DHT22;3556;53.500;10.176;2023-04-02T11:27:35;11.60;85.40
7030;DHT22;3556;53.500;10.176;2023-04-02T11:30:21;11.60;84.50
7030;DHT22;3556;53.500;10.176;2023-04-02T11:32:48;11.90;81.20
7030;DHT22;3556;53.500;10.176;2023-04-02T11:37:57;12.40;82.80
7030;DHT22;3556;53.500;10.176;2023-04-02T11:46:04;12.70;82.40
7030;DHT22;3556;53.500;10.176;2023-04-02T11:48:34;12.50;82.60
7030;DHT22;3556;53.500;10.176;2023-04-02T11:53:49;12.50;79.00
7030;DHT22;3556;53.500;10.176;2023-04-02T12:02:17;13.50;81.10
7030;DHT22;3556;53.500;10.176;2023-04-02T12:05:06;13.60;72.70
7030;DHT22;3556;53.500;10.176;2023-04-02T12:10:14;13.40;74.20
7030;DHT22;3556;53.500;10.176;2023-04-02T12:12:40;13.20;75.30
7030;DHT22;3556;53.500;10.176;2023-04-02T12:18:29;13.10;77.00
7030;DHT22;3556;53.500;10.176;2023-04-02T12:20:56;12.70;78.50
7030;DHT22;3556;53.500;10.176;2023-04-02T12:23:28;12.60;77.90
7030;DHT22;3556;53.500;10.176;2023-04-02T12:26:05;12.80;76.80
7030;DHT22;3556;53.500;10.176;2023-04-02T12:28:31;13.10;75.40
7030;DHT22;3556;53.500;10.176;2023-04-02T12:31:11;13.40;75.40
7030;DHT22;3556;53.500;10.176;2023-04-02T12:33:40;13.60;72.80
7030;DHT22;3556;53.500;10.176;2023-04-02T12:36:27;13.60;76.80
7030;DHT22;3556;53.500;10.176;2023-04-02T12:38:55;13.70;75.30
7030;DHT22;3556;53.500;10.176;2023-04-02T12:41:29;13.90;73.40
7030;DHT22;3556;53.500;10.176;2023-04-02T12:44:13;13.80;68.70
7030;DHT22;3556;53.500;10.176;2023-04-02T12:46:43;14.10;73.30
7030;DHT22;3556;53.500;10.176;2023-04-02T12:51:56;14.80;71.80
7030;DHT22;3556;53.500;10.176;2023-04-02T12:54:22;14.30;67.00
7030;DHT22;3556;53.500;10.176;2023-04-02T12:56:49;14.40;73.80
7030;DHT22;3556;53.500;10.176;2023-04-02T12:59:28;14.60;75.10
7030;DHT22;3556;53.500;10.176;2023-04-02T13:01:58;14.90;80.10
7030;DHT22;3556;53.500;10.176;2023-04-02T13:04:24;15.60;75.40
7030;DHT22;3556;53.500;10.176;2023-04-02T13:06:51;15.40;70.30
7030;DHT22;3556;53.500;10.176;2023-04-02T13:09:29;14.60;69.40
7030;DHT22;3556;53.500;10.176;2023-04-02T13:11:56;14.80;72.90
7030;DHT22;3556;53.500;10.176;2023-04-02T13:14:23;14.40;73.70
7030;DHT22;3556;53.500;10.176;2023-04-02T13:16:49;14.50;74.50
7030;DHT22;3556;53.500;10.176;2023-04-02T13:19:22;15.00;75.30
7030;DHT22;3556;53.500;10.176;2023-04-02T13:21:49;15.00;68.90
7030;DHT22;3556;53.500;10.176;2023-04-02T13:24:26;15.10;71.70
7030;DHT22;3556;53.500;10.176;2023-04-02T13:26:57;15.80;74.10
7030;DHT22;3556;53.500;10.176;2023-04-02T13:31:51;15.00;66.80
7030;DHT22;3556;53.500;10.176;2023-04-02T13:34:17;14.30;69.80
7030;DHT22;3556;53.500;10.176;2023-04-02T13:36:43;14.10;71.40
7030;DHT22;3556;53.500;10.176;2023-04-02T13:39:09;14.10;72.30
7030;DHT22;3556;53.500;10.176;2023-04-02T13:41:43;14.90;71.80
7030;DHT22;3556;53.500;10.176;2023-04-02T13:44:26;15.00;73.00
7030;DHT22;3556;53.500;10.176;2023-04-02T13:46:53;15.00;67.30
7030;DHT22;3556;53.500;10.176;2023-04-02T13:49:21;15.50;71.50
7030;DHT22;3556;53.500;10.176;2023-04-02T13:51:52;15.50;66.00
7030;DHT22;3556;53.500;10.176;2023-04-02T13:54:28;15.00;65.40
7030;DHT22;3556;53.500;10.176;2023-04-02T13:56:55;14.80;69.30
7030;DHT22;3556;53.500;10.176;2023-04-02T13:59:22;15.20;68.20
7030;DHT22;3556;53.500;10.176;2023-04-02T14:01:50;15.20;66.20
7030;DHT22;3556;53.500;10.176;2023-04-02T14:04:21;15.10;71.30
7030;DHT22;3556;53.500;10.176;2023-04-02T14:09:51;15.10;70.20
7030;DHT22;3556;53.500;10.176;2023-04-02T14:12:34;14.70;69.00
7030;DHT22;3556;53.500;10.176;2023-04-02T14:26:17;16.30;67.60
7030;DHT22;3556;53.500;10.176;2023-04-02T14:28:53;15.70;62.40
7030;DHT22;3556;53.500;10.176;2023-04-02T14:31:33;15.20;64.70
7030;DHT22;3556;53.500;10.176;2023-04-02T14:39:54;14.30;67.00
7030;DHT22;3556;53.500;10.176;2023-04-02T14:48:29;15.20;63.20
7030;DHT22;3556;53.500;10.176;2023-04-02T14:51:43;14.20;67.10
7030;DHT22;3556;53.500;10.176;2023-04-02T14:56:58;13.30;75.40
7030;DHT22;3556;53.500;10.176;2023-04-02T14:59:49;13.90;70.50
7030;DHT22;3556;53.500;10.176;2023-04-02T15:05:10;14.10;70.60
7030;DHT22;3556;53.500;10.176;2023-04-02T15:07:48;14.50;74.50
7030;DHT22;3556;53.500;10.176;2023-04-02T15:13:07;16.10;65.70
7030;DHT22;3556;53.500;10.176;2023-04-02T15:15:46;15.60;65.40
7030;DHT22;3556;53.500;10.176;2023-04-02T15:18:15;15.00;65.60
7030;DHT22;3556;53.500;10.176;2023-04-02T15:20:56;14.50;65.90
7030;DHT22;3556;53.500;10.176;2023-04-02T15:26:19;13.20;70.10
7030;DHT22;3556;53.500;10.176;2023-04-02T15:31:26;13.20;71.20
7030;DHT22;3556;53.500;10.176;2023-04-02T15:36:58;12.40;72.90
7030;DHT22;3556;53.500;10.176;2023-04-02T15:39:40;12.30;72.50
7030;DHT22;3556;53.500;10.176;2023-04-02T15:42:12;12.40;72.70
7030;DHT22;3556;53.500;10.176;2023-04-02T15:47:40;12.00;74.20
7030;DHT22;3556;53.500;10.176;2023-04-02T15:56:25;10.40;85.20
7030;DHT22;3556;53.500;10.176;2023-04-02T15:58:58;10.40;86.70
7030;DHT22;3556;53.500;10.176;2023-04-02T16:01:41;9.80;87.70
7030;DHT22;3556;53.500;10.176;2023-04-02T16:04:26;9.60;91.50
7030;DHT22;3556;53.500;10.176;2023-04-02T16:12:40;8.40;95.10
7030;DHT22;3556;53.500;10.176;2023-04-02T16:15:21;8.50;95.80
7030;DHT22;3556;53.500;10.176;2023-04-02T16:17:54;8.60;95.50
7030;DHT22;3556;53.500;10.176;2023-04-02T16:20:22;8.60;95.00
7030;DHT22;3556;53.500;10.176;2023-04-02T16:22:59;8.50;95.10
7030;DHT22;3556;53.500;10.176;2023-04-02T16:25:33;8.50;95.40
7030;DHT22;3556;53.500;10.176;2023-04-02T16:28:04;8.40;95.70
7030;DHT22;3556;53.500;10.176;2023-04-02T16:31:10;8.40;95.50
7030;DHT22;3556;53.500;10.176;2023-04-02T16:36:19;8.00;95.90
7030;DHT22;3556;53.500;10.176;2023-04-02T16:44:46;7.60;97.30
7030;DHT22;3556;53.500;10.176;2023-04-02T16:47:28;7.40;96.80
7030;DHT22;3556;53.500;10.176;2023-04-02T16:52:46;7.30;97.50
7030;DHT22;3556;53.500;10.176;2023-04-02T17:00:49;7.00;98.60
7030;DHT22;3556;53.500;10.176;2023-04-02T17:03:41;6.80;98.30
7030;DHT22;3556;53.500;10.176;2023-04-02T17:06:18;6.80;99.80
7030;DHT22;3556;53.500;10.176;2023-04-02T17:09:02;6.70;99.20
7030;DHT22;3556;53.500;10.176;2023-04-02T17:11:39;6.60;98.50
7030;DHT22;3556;53.500;10.176;2023-04-02T17:14:18;6.50;98.90
7030;DHT22;3556;53.500;10.176;2023-04-02T17:16:50;6.40;99.10
7030;DHT22;3556;53.500;10.176;2023-04-02T17:19:17;6.30;99.70
7030;DHT22;3556;53.500;10.176;2023-04-02T17:21:47;6.20;99.90
7030;DHT22;3556;53.500;10.176;2023-04-02T17:24:14;6.10;99.90
7030;DHT22;3556;53.500;10.176;2023-04-02T17:26:54;6.10;99.90
7030;DHT22;3556;53.500;10.176;2023-04-02T17:29:34;6.00;99.90
7030;DHT22;3556;53.500;10.176;2023-04-02T17:32:01;5.90;99.90
7030;DHT22;3556;53.500;10.176;2023-04-02T17:34:28;5.80;99.90
7030;DHT22;3556;53.500;10.176;2023-04-02T17:37:16;5.80;99.90
7030;DHT22;3556;53.500;10.176;2023-04-02T17:39:48;5.70;99.90
7030;DHT22;3556;53.500;10.176;2023-04-02T17:45:13;5.50;99.90
7030;DHT22;3556;53.500;10.176;2023-04-02T17:48:04;5.50;99.90
7030;DHT22;3556;53.500;10.176;2023-04-02T17:51:03;5.40;99.90
7030;DHT22;3556;53.500;10.176;2023-04-02T17:53:49;5.30;99.90
7030;DHT22;3556;53.500;10.176;2023-04-02T18:02:20;5.10;99.90
7030;DHT22;3556;53.500;10.176;2023-04-02T18:05:00;5.00;99.90
7030;DHT22;3556;53.500;10.176;2023-04-02T18:13:22;4.80;99.90
7030;DHT22;3556;53.500;10.176;2023-04-02T18:19:09;4.60;99.90
7030;DHT22;3556;53.500;10.176;2023-04-02T18:21:43;4.50;99.90
7030;DHT22;3556;53.500;10.176;2023-04-02T18:27:10;4.40;99.90
7030;DHT22;3556;53.500;10.176;2023-04-02T18:32:37;4.30;99.90
7030;DHT22;3556;53.500;10.176;2023-04-02T18:35:21;4.10;99.90
7030;DHT22;3556;53.500;10.176;2023-04-02T18:46:34;3.90;99.90
7030;DHT22;3556;53.500;10.176;2023-04-02T18:49:23;3.80;99.90
7030;DHT22;3556;53.500;10.176;2023-04-02T18:52:00;3.70;99.90
7030;DHT22;3556;53.500;10.176;2023-04-02T18:56:58;3.60;99.90
7030;DHT22;3556;53.500;10.176;2023-04-02T18:59:40;3.50;99.90
7030;DHT22;3556;53.500;10.176;2023-04-02T19:02:39;3.50;99.90
7030;DHT22;3556;53.500;10.176;2023-04-02T19:05:26;3.40;99.90
7030;DHT22;3556;53.500;10.176;2023-04-02T19:11:12;3.30;99.90
7030;DHT22;3556;53.500;10.176;2023-04-02T19:13:38;3.20;99.90
7030;DHT22;3556;53.500;10.176;2023-04-02T19:19:24;3.10;99.90
7030;DHT22;3556;53.500;10.176;2023-04-02T19:27:37;3.00;99.90
7030;DHT22;3556;53.500;10.176;2023-04-02T19:35:35;2.90;99.90
7030;DHT22;3556;53.500;10.176;2023-04-02T19:40:49;2.80;99.90
7030;DHT22;3556;53.500;10.176;2023-04-02T19:43:18;2.80;99.90
7030;DHT22;3556;53.500;10.176;2023-04-02T19:45:46;2.70;99.90
7030;DHT22;3556;53.500;10.176;2023-04-02T19:48:19;2.70;99.90
7030;DHT22;3556;53.500;10.176;2023-04-02T19:50:46;2.70;99.90
7030;DHT22;3556;53.500;10.176;2023-04-02T19:53:13;2.60;99.90
7030;DHT22;3556;53.500;10.176;2023-04-02T19:55:39;2.60;99.90
7030;DHT22;3556;53.500;10.176;2023-04-02T19:58:05;2.50;99.90
7030;DHT22;3556;53.500;10.176;2023-04-02T20:00:31;2.50;99.90
7030;DHT22;3556;53.500;10.176;2023-04-02T20:02:57;2.50;99.90
7030;DHT22;3556;53.500;10.176;2023-04-02T20:05:23;2.50;99.90
7030;DHT22;3556;53.500;10.176;2023-04-02T20:07:49;2.50;99.90
7030;DHT22;3556;53.500;10.176;2023-04-02T20:10:14;2.40;99.90
7030;DHT22;3556;53.500;10.176;2023-04-02T20:12:40;2.40;99.90
7030;DHT22;3556;53.500;10.176;2023-04-02T20:15:06;2.30;99.90
7030;DHT22;3556;53.500;10.176;2023-04-02T20:17:32;2.40;99.90
7030;DHT22;3556;53.500;10.176;2023-04-02T20:19:58;2.30;99.90
7030;DHT22;3556;53.500;10.176;2023-04-02T20:22:23;2.30;99.90
7030;DHT22;3556;53.500;10.176;2023-04-02T20:24:49;2.30;99.90
7030;DHT22;3556;53.500;10.176;2023-04-02T20:27:15;2.30;99.90
7030;DHT22;3556;53.500;10.176;2023-04-02T20:29:40;2.20;99.90
7030;DHT22;3556;53.500;10.176;2023-04-02T20:32:07;2.20;99.90
7030;DHT22;3556;53.500;10.176;2023-04-02T20:34:33;2.20;99.90
7030;DHT22;3556;53.500;10.176;2023-04-02T20:36:59;2.10;99.90
7030;DHT22;3556;53.500;10.176;2023-04-02T20:39:24;2.10;99.90
7030;DHT22;3556;53.500;10.176;2023-04-02T20:41:50;2.10;99.90
7030;DHT22;3556;53.500;10.176;2023-04-02T20:44:16;2.00;99.90
7030;DHT22;3556;53.500;10.176;2023-04-02T20:46:41;2.00;99.90
7030;DHT22;3556;53.500;10.176;2023-04-02T20:49:07;1.90;99.90
7030;DHT22;3556;53.500;10.176;2023-04-02T20:51:33;1.90;99.90
7030;DHT22;3556;53.500;10.176;2023-04-02T20:53:59;1.90;99.90
7030;DHT22;3556;53.500;10.176;2023-04-02T20:56:24;1.80;99.90
7030;DHT22;3556;53.500;10.176;2023-04-02T20:58:51;1.80;99.90
7030;DHT22;3556;53.500;10.176;2023-04-02T21:01:24;1.80;99.90
7030;DHT22;3556;53.500;10.176;2023-04-02T21:04:00;1.80;99.90
7030;DHT22;3556;53.500;10.176;2023-04-02T21:06:31;1.80;99.90
7030;DHT22;3556;53.500;10.176;2023-04-02T21:08:59;1.70;99.90
7030;DHT22;3556;53.500;10.176;2023-04-02T21:11:24;1.70;99.90
7030;DHT22;3556;53.500;10.176;2023-04-02T21:13:50;1.70;99.90
7030;DHT22;3556;53.500;10.176;2023-04-02T21:16:26;1.60;99.90
7030;DHT22;3556;53.500;10.176;2023-04-02T21:18:53;1.60;99.90
7030;DHT22;3556;53.500;10.176;2023-04-02T21:21:21;1.60;99.90
7030;DHT22;3556;53.500;10.176;2023-04-02T21:23:47;1.50;99.90
7030;DHT22;3556;53.500;10.176;2023-04-02T21:26:15;1.50;99.90
7030;DHT22;3556;53.500;10.176;2023-04-02T21:28:42;1.50;99.90